Time;durP1;ratioP1;P1;durP2;ratioP2;P2;SDS_P1;SDS_P2;PMS_P1;PMS_P2;Temp;Humidity;BMP_temperature;BMP_pressure;BME280_temperature;BME280_humidity;BME280_pressure;Samples;Min_cycle;Max_cycle;Signal;HPM_P1;HPM_P2
2022/11/29 00:01:03;;;;;;;11.40;7.97;;;;;;;;;;5052152;28;20132;-74
2022/11/29 00:03:30;;;;;;;9.93;7.30;;;;;;;;;;5065773;28;20416;-74
2022/11/29 00:05:56;;;;;;;12.05;7.57;;;;;;;;;;5065014;28;20372;-74
2022/11/29 00:08:23;;;;;;;10.10;6.50;;;;;;;;;;5064374;28;20036;-74
2022/11/29 00:10:49;;;;;;;12.65;6.72;;;;;;;;;;5066608;28;20032;-75
2022/11/29 00:13:17;;;;;;;8.65;5.93;;;;;;;;;;5062359;28;20028;-74
2022/11/29 00:15:43;;;;;;;8.85;5.82;;;;;;;;;;5066889;28;20240;-74
2022/11/29 00:18:09;;;;;;;6.13;5.40;;;;;;;;;;5064378;28;20143;-74
2022/11/29 00:20:35;;;;;;;9.63;5.95;;;;;;;;;;5059835;28;20029;-74
2022/11/29 00:23:01;;;;;;;11.07;6.47;;;;;;;;;;5063608;28;20036;-74
2022/11/29 00:25:27;;;;;;;9.15;5.75;;;;;;;;;;5063793;28;20708;-75
2022/11/29 00:27:54;;;;;;;9.90;6.07;;;;;;;;;;5063906;28;20618;-75
2022/11/29 00:30:20;;;;;;;8.52;6.38;;;;;;;;;;5066489;28;20025;-74
2022/11/29 00:32:46;;;;;;;11.00;6.20;;;;;;;;;;5060258;28;20032;-75
2022/11/29 00:35:12;;;;;;;11.80;7.25;;;;;;;;;;5064639;28;20047;-75
2022/11/29 00:37:38;;;;;;;9.32;6.53;;;;;;;;;;5063501;28;20033;-74
2022/11/29 00:40:05;;;;;;;11.48;6.80;;;;;;;;;;5063277;28;20035;-74
2022/11/29 00:42:31;;;;;;;7.82;6.30;;;;;;;;;;5063590;28;20488;-74
2022/11/29 00:44:57;;;;;;;9.90;6.45;;;;;;;;;;5063125;28;20431;-74
2022/11/29 00:47:23;;;;;;;10.57;5.97;;;;;;;;;;5064903;28;20063;-74
2022/11/29 00:49:50;;;;;;;13.35;6.22;;;;;;;;;;5065718;28;20040;-74
2022/11/29 00:52:16;;;;;;;10.50;6.68;;;;;;;;;;5068064;28;20499;-74
2022/11/29 00:54:42;;;;;;;9.45;6.47;;;;;;;;;;5059781;28;20047;-74
2022/11/29 00:57:08;;;;;;;9.00;6.90;;;;;;;;;;5067082;28;20043;-74
2022/11/29 00:59:34;;;;;;;13.55;7.78;;;;;;;;;;5067911;28;20082;-74
2022/11/29 01:02:00;;;;;;;9.25;6.25;;;;;;;;;;5064304;28;20029;-74
2022/11/29 01:04:26;;;;;;;7.85;5.88;;;;;;;;;;5060723;28;20093;-74
2022/11/29 01:06:52;;;;;;;9.43;6.22;;;;;;;;;;5058042;28;20094;-74
2022/11/29 01:09:19;;;;;;;9.13;6.53;;;;;;;;;;5064526;28;20027;-74
2022/11/29 01:11:45;;;;;;;8.88;6.15;;;;;;;;;;5071801;28;20033;-75
2022/11/29 01:14:12;;;;;;;7.93;5.18;;;;;;;;;;5063129;28;20025;-73
2022/11/29 01:16:38;;;;;;;8.07;5.22;;;;;;;;;;5056865;28;20122;-75
2022/11/29 01:19:06;;;;;;;6.43;4.80;;;;;;;;;;5061558;28;20525;-74
2022/11/29 01:21:32;;;;;;;5.90;5.03;;;;;;;;;;5063908;28;20096;-74
2022/11/29 01:23:59;;;;;;;8.68;4.82;;;;;;;;;;5064590;28;20437;-74
2022/11/29 01:26:26;;;;;;;6.32;4.20;;;;;;;;;;5064778;28;20025;-74
2022/11/29 01:28:53;;;;;;;5.05;4.07;;;;;;;;;;5063415;28;20021;-75
2022/11/29 01:31:21;;;;;;;4.13;3.15;;;;;;;;;;5064966;28;20050;-74
2022/11/29 01:33:47;;;;;;;3.53;2.92;;;;;;;;;;5064761;28;20033;-75
2022/11/29 01:36:14;;;;;;;5.85;3.50;;;;;;;;;;5060564;28;20016;-75
2022/11/29 01:38:41;;;;;;;10.45;3.33;;;;;;;;;;5062433;28;20059;-75
2022/11/29 01:41:08;;;;;;;8.48;4.03;;;;;;;;;;5062603;28;20028;-74
2022/11/29 01:43:53;;;;;;;5.50;3.90;;;;;;;;;;5060791;28;20071;-74
2022/11/29 01:46:19;;;;;;;4.63;3.60;;;;;;;;;;5059970;28;20021;-75
2022/11/29 01:48:45;;;;;;;3.92;3.20;;;;;;;;;;5066452;28;20037;-75
2022/11/29 01:51:11;;;;;;;7.18;3.78;;;;;;;;;;5060682;28;20115;-75
2022/11/29 01:53:37;;;;;;;5.45;3.20;;;;;;;;;;5064137;28;20496;-74
2022/11/29 01:56:04;;;;;;;6.78;3.88;;;;;;;;;;5065913;28;20028;-75
2022/11/29 01:58:31;;;;;;;4.00;3.47;;;;;;;;;;5063466;28;20036;-74
2022/11/29 02:00:57;;;;;;;5.70;3.83;;;;;;;;;;5068384;28;20407;-75
2022/11/29 02:03:24;;;;;;;9.15;3.90;;;;;;;;;;5061679;28;20036;-74
2022/11/29 02:05:51;;;;;;;7.00;4.20;;;;;;;;;;5061255;28;20050;-74
2022/11/29 02:08:23;;;;;;;6.03;4.20;;;;;;;;;;5062903;28;20527;-75
2022/11/29 02:11:07;;;;;;;5.30;4.20;;;;;;;;;;5061313;28;20024;-74
2022/11/29 02:13:44;;;;;;;9.10;5.20;;;;;;;;;;5059814;28;20032;-74
2022/11/29 02:16:16;;;;;;;9.27;4.93;;;;;;;;;;5064677;28;20033;-75
2022/11/29 02:19:01;;;;;;;7.93;5.57;;;;;;;;;;5060482;28;20138;-74
2022/11/29 02:21:31;;;;;;;7.97;5.72;;;;;;;;;;5059059;28;20032;-74
2022/11/29 02:24:16;;;;;;;8.55;6.13;;;;;;;;;;5062114;28;20066;-74
2022/11/29 02:27:00;;;;;;;6.28;5.55;;;;;;;;;;5057946;28;20059;-74
2022/11/29 02:29:29;;;;;;;7.70;5.13;;;;;;;;;;5057814;28;20024;-74
2022/11/29 02:31:55;;;;;;;6.70;4.00;;;;;;;;;;5061541;28;20438;-74
2022/11/29 02:34:31;;;;;;;3.88;3.17;;;;;;;;;;5062682;28;20581;-74
2022/11/29 02:37:00;;;;;;;4.75;3.38;;;;;;;;;;5061350;28;20032;-74
2022/11/29 02:39:51;;;;;;;7.18;5.32;;;;;;;;;;5065873;28;20032;-75
2022/11/29 02:42:20;;;;;;;10.07;5.38;;;;;;;;;;5066514;28;20036;-74
2022/11/29 02:45:16;;;;;;;8.73;6.25;;;;;;;;;;5059473;28;20140;-74
2022/11/29 02:47:48;;;;;;;5.55;4.93;;;;;;;;;;5049359;28;20041;-75
2022/11/29 02:50:14;;;;;;;8.18;4.57;;;;;;;;;;5063092;28;20098;-74
2022/11/29 02:52:52;;;;;;;5.85;4.70;;;;;;;;;;5059631;28;20526;-74
2022/11/29 02:55:39;;;;;;;6.28;4.15;;;;;;;;;;5063139;28;20054;-76
2022/11/29 02:58:23;;;;;;;5.55;4.28;;;;;;;;;;5060109;28;20068;-74
2022/11/29 03:00:56;;;;;;;6.85;4.60;;;;;;;;;;5059617;28;20024;-75
2022/11/29 03:03:38;;;;;;;7.07;4.43;;;;;;;;;;5065615;28;20028;-74
2022/11/29 03:06:07;;;;;;;8.43;4.22;;;;;;;;;;5062386;28;20028;-74
2022/11/29 03:08:34;;;;;;;5.13;3.65;;;;;;;;;;5063420;28;20020;-73
2022/11/29 03:11:20;;;;;;;3.45;2.15;;;;;;;;;;5060744;28;20024;-73
2022/11/29 03:13:55;;;;;;;2.47;1.80;;;;;;;;;;5065769;28;20029;-74
2022/11/29 03:16:28;;;;;;;3.40;1.90;;;;;;;;;;5063178;28;20039;-74
2022/11/29 03:19:03;;;;;;;2.13;1.60;;;;;;;;;;5061605;28;20033;-74
2022/11/29 03:21:29;;;;;;;2.30;1.77;;;;;;;;;;5062230;28;20074;-75
2022/11/29 03:24:02;;;;;;;2.10;1.30;;;;;;;;;;5063560;28;20023;-74
2022/11/29 03:26:48;;;;;;;1.38;1.05;;;;;;;;;;5061733;28;20028;-73
2022/11/29 03:29:17;;;;;;;3.35;1.30;;;;;;;;;;5079457;28;20024;-73
2022/11/29 03:32:02;;;;;;;2.20;1.00;;;;;;;;;;5069959;28;20024;-74
2022/11/29 03:34:44;;;;;;;8.70;0.82;;;;;;;;;;5068203;28;20036;-74
2022/11/29 03:37:10;;;;;;;1.17;0.50;;;;;;;;;;5063041;28;20031;-74
2022/11/29 03:39:42;;;;;;;0.77;0.52;;;;;;;;;;5064548;28;20388;-74
2022/11/29 03:42:12;;;;;;;1.73;0.40;;;;;;;;;;5061999;28;20021;-74
2022/11/29 03:44:56;;;;;;;0.60;0.35;;;;;;;;;;5063526;28;20033;-74
2022/11/29 03:47:35;;;;;;;1.58;0.57;;;;;;;;;;5060943;28;20037;-74
2022/11/29 03:50:01;;;;;;;2.92;0.68;;;;;;;;;;5045232;28;20116;-74
2022/11/29 03:52:32;;;;;;;3.13;0.70;;;;;;;;;;5047398;28;20040;-74
2022/11/29 03:55:17;;;;;;;1.77;0.90;;;;;;;;;;5046595;28;20116;-74
2022/11/29 03:58:01;;;;;;;3.35;1.20;;;;;;;;;;5045470;28;20040;-73
2022/11/29 04:00:35;;;;;;;3.60;1.10;;;;;;;;;;5047455;28;20030;-74
2022/11/29 04:03:20;;;;;;;1.58;0.85;;;;;;;;;;5049346;28;20582;-74
2022/11/29 04:06:04;;;;;;;1.08;0.85;;;;;;;;;;5040656;28;20041;-74
2022/11/29 04:08:48;;;;;;;3.42;1.20;;;;;;;;;;5046754;28;20055;-74
2022/11/29 04:11:33;;;;;;;3.53;1.20;;;;;;;;;;5041688;28;20029;-74
2022/11/29 04:14:18;;;;;;;2.80;1.10;;;;;;;;;;5042293;28;20032;-77
2022/11/29 04:16:44;;;;;;;0.75;0.55;;;;;;;;;;5040055;28;20417;-74
2022/11/29 04:19:10;;;;;;;0.88;0.50;;;;;;;;;;5032081;28;20037;-75
2022/11/29 04:21:54;;;;;;;0.63;0.50;;;;;;;;;;5040825;28;20032;-74
2022/11/29 04:24:27;;;;;;;0.85;0.60;;;;;;;;;;5042589;28;20044;-74
2022/11/29 04:26:59;;;;;;;0.40;0.40;;;;;;;;;;5043240;28;20028;-74
2022/11/29 04:29:25;;;;;;;2.28;0.68;;;;;;;;;;5040210;28;20029;-74
2022/11/29 04:32:05;;;;;;;1.77;0.73;;;;;;;;;;5040688;28;20103;-74
2022/11/29 04:34:46;;;;;;;0.88;0.70;;;;;;;;;;5038447;28;20025;-74
2022/11/29 04:37:37;;;;;;;0.53;0.50;;;;;;;;;;5045246;28;20036;-74
2022/11/29 04:40:23;;;;;;;0.95;0.60;;;;;;;;;;5031154;28;20043;-74
2022/11/29 04:43:14;;;;;;;0.70;0.60;;;;;;;;;;5033655;28;20032;-74
2022/11/29 04:46:07;;;;;;;0.52;0.43;;;;;;;;;;5033661;28;20033;-74
2022/11/29 04:48:36;;;;;;;0.40;0.30;;;;;;;;;;5021245;28;20037;-74
2022/11/29 04:51:22;;;;;;;0.40;0.40;;;;;;;;;;5042541;28;20033;-74
2022/11/29 04:53:56;;;;;;;0.30;0.30;;;;;;;;;;5028591;28;20410;-74
2022/11/29 04:56:30;;;;;;;0.47;0.40;;;;;;;;;;5038714;28;20029;-74
2022/11/29 04:59:04;;;;;;;1.33;0.55;;;;;;;;;;5028127;28;20036;-75
2022/11/29 05:01:50;;;;;;;1.83;0.47;;;;;;;;;;5038445;28;20021;-74
2022/11/29 05:04:24;;;;;;;0.90;0.60;;;;;;;;;;5030655;28;20037;-73
2022/11/29 05:07:07;;;;;;;1.70;0.57;;;;;;;;;;5038412;28;20055;-74
2022/11/29 05:09:36;;;;;;;1.08;0.80;;;;;;;;;;5035177;28;20032;-74
2022/11/29 05:12:08;;;;;;;1.48;1.10;;;;;;;;;;5031121;28;20467;-74
2022/11/29 05:14:59;;;;;;;1.75;1.10;;;;;;;;;;5034894;28;20028;-75
2022/11/29 05:17:29;;;;;;;1.65;1.40;;;;;;;;;;5043510;28;20041;-75
2022/11/29 05:20:04;;;;;;;1.77;1.60;;;;;;;;;;5043428;28;20523;-75
2022/11/29 05:23:09;;;;;;;3.08;1.85;;;;;;;;;;5037557;28;20096;-75
2022/11/29 05:25:38;;;;;;;2.33;1.70;;;;;;;;;;5009994;28;20125;-75
2022/11/29 05:28:04;;;;;;;2.78;2.10;;;;;;;;;;5011975;28;20021;-76
2022/11/29 05:30:54;;;;;;;2.63;2.20;;;;;;;;;;5020926;28;20037;-75
2022/11/29 05:33:39;;;;;;;2.78;2.30;;;;;;;;;;5032025;28;20105;-75
2022/11/29 05:36:11;;;;;;;2.55;2.13;;;;;;;;;;5035665;28;20496;-75
2022/11/29 05:38:37;;;;;;;;;;;;;;;;;;5035317;28;20056;-75
2022/11/29 05:41:13;;;;;;;3.05;2.60;;;;;;;;;;5033232;28;20502;-76
2022/11/29 05:43:57;;;;;;;2.80;2.42;;;;;;;;;;5035239;28;20028;-75
2022/11/29 05:46:29;;;;;;;4.78;2.30;;;;;;;;;;5033732;28;20036;-76
2022/11/29 05:48:58;;;;;;;3.33;2.55;;;;;;;;;;5055942;28;20044;-75
2022/11/29 05:51:40;;;;;;;3.22;2.60;;;;;;;;;;5054764;28;20028;-75
2022/11/29 05:54:12;;;;;;;3.60;2.55;;;;;;;;;;5048308;28;20070;-75
2022/11/29 05:56:48;;;;;;;4.03;2.80;;;;;;;;;;5045082;28;20495;-75
2022/11/29 05:59:18;;;;;;;5.07;2.80;;;;;;;;;;5054535;28;20067;-75
2022/11/29 06:01:52;;;;;;;2.78;2.50;;;;;;;;;;5050859;28;20043;-75
2022/11/29 06:04:30;;;;;;;5.22;3.13;;;;;;;;;;5057367;28;20886;-75
2022/11/29 06:07:02;;;;;;;7.22;3.00;;;;;;;;;;5053488;28;20044;-73
2022/11/29 06:09:29;;;;;;;;;;;;;;;;;;5052181;28;20039;-75
2022/11/29 06:12:01;;;;;;;5.97;3.35;;;;;;;;;;5053631;28;19912;-74
2022/11/29 06:14:52;;;;;;;4.78;2.95;;;;;;;;;;5052053;28;20031;-74
2022/11/29 06:17:24;;;;;;;4.72;3.00;;;;;;;;;;5064286;28;20047;-73
2022/11/29 06:20:22;;;;;;;3.35;3.05;;;;;;;;;;5054714;28;20475;-73
2022/11/29 06:22:49;;;;;;;5.97;3.42;;;;;;;;;;5012517;28;20091;-74
2022/11/29 06:25:26;;;;;;;4.10;3.25;;;;;;;;;;5056860;28;20496;-75
2022/11/29 06:27:52;;;;;;;7.47;2.70;;;;;;;;;;5056249;28;20048;-75
2022/11/29 06:30:21;;;;;;;4.38;2.53;;;;;;;;;;5048959;28;20105;-75
2022/11/29 06:33:05;;;;;;;3.90;2.63;;;;;;;;;;5059240;28;20024;-75
2022/11/29 06:35:35;;;;;;;3.88;2.60;;;;;;;;;;5061727;28;20074;-75
2022/11/29 06:38:10;;;;;;;4.20;2.85;;;;;;;;;;5066063;28;20024;-74
2022/11/29 06:40:37;;;;;;;4.78;2.72;;;;;;;;;;5061264;28;20048;-75
2022/11/29 06:43:03;;;;;;;2.85;2.60;;;;;;;;;;5054358;28;20021;-75
2022/11/29 06:45:29;;;;;;;2.85;2.50;;;;;;;;;;5059128;28;20032;-75
2022/11/29 06:47:58;;;;;;;4.15;3.03;;;;;;;;;;5043175;28;20805;-76
2022/11/29 06:50:33;;;;;;;3.78;3.15;;;;;;;;;;5055807;28;20029;-76
2022/11/29 06:52:59;;;;;;;6.50;3.15;;;;;;;;;;5051272;28;20684;-75
2022/11/29 06:55:44;;;;;;;5.18;3.33;;;;;;;;;;5053290;28;20497;-75
2022/11/29 06:58:19;;;;;;;5.45;3.30;;;;;;;;;;5058629;28;20110;-75
2022/11/29 07:00:56;;;;;;;4.38;3.22;;;;;;;;;;5064939;28;20047;-74
2022/11/29 07:03:37;;;;;;;3.65;3.20;;;;;;;;;;5058962;28;20070;-75
2022/11/29 07:06:07;;;;;;;5.68;3.78;;;;;;;;;;5059086;28;20039;-75
2022/11/29 07:08:34;;;;;;;5.00;3.75;;;;;;;;;;5056661;28;20077;-76
2022/11/29 07:11:00;;;;;;;4.88;3.63;;;;;;;;;;5053234;28;20037;-75
2022/11/29 07:13:26;;;;;;;5.13;3.65;;;;;;;;;;5054499;28;20110;-76
2022/11/29 07:15:58;;;;;;;4.28;3.35;;;;;;;;;;5053036;28;20037;-76
2022/11/29 07:18:36;;;;;;;3.50;3.13;;;;;;;;;;5049154;28;20032;-76
2022/11/29 07:21:10;;;;;;;4.15;3.70;;;;;;;;;;5059388;28;20086;-76
2022/11/29 07:23:55;;;;;;;4.63;3.70;;;;;;;;;;5059973;28;20036;-75
2022/11/29 07:26:29;;;;;;;5.95;3.72;;;;;;;;;;5059529;28;20047;-76
2022/11/29 07:28:58;;;;;;;7.07;3.42;;;;;;;;;;5053296;28;20607;-75
2022/11/29 07:31:36;;;;;;;5.18;3.60;;;;;;;;;;5059328;28;20029;-74
2022/11/29 07:34:02;;;;;;;4.18;3.30;;;;;;;;;;5051828;28;20033;-75
2022/11/29 07:36:36;;;;;;;4.50;3.15;;;;;;;;;;5057303;28;20048;-75
2022/11/29 07:39:22;;;;;;;5.53;4.05;;;;;;;;;;5059051;28;20663;-74
2022/11/29 07:42:05;;;;;;;6.80;3.50;;;;;;;;;;5020963;28;20044;-75
2022/11/29 07:44:31;;;;;;;4.07;3.67;;;;;;;;;;5059239;28;20028;-75
2022/11/29 07:46:57;;;;;;;4.47;3.92;;;;;;;;;;5058582;28;20460;-75
2022/11/29 07:49:24;;;;;;;4.57;3.50;;;;;;;;;;5052952;28;20044;-76
2022/11/29 07:51:50;;;;;;;5.15;4.05;;;;;;;;;;5058103;28;20017;-75
2022/11/29 07:54:17;;;;;;;4.82;4.30;;;;;;;;;;5057446;28;20025;-75
2022/11/29 07:56:43;;;;;;;5.57;3.63;;;;;;;;;;5058546;28;20033;-76
2022/11/29 07:59:11;;;;;;;4.22;3.75;;;;;;;;;;5061810;28;20024;-75
2022/11/29 08:01:37;;;;;;;8.88;4.20;;;;;;;;;;5058956;28;20064;-75
2022/11/29 08:04:03;;;;;;;3.70;3.30;;;;;;;;;;5060345;28;20039;-75
2022/11/29 08:06:29;;;;;;;5.65;3.70;;;;;;;;;;5052145;28;20036;-75
2022/11/29 08:08:59;;;;;;;4.38;3.80;;;;;;;;;;5058650;28;20033;-76
2022/11/29 08:11:25;;;;;;;3.45;3.15;;;;;;;;;;5059623;28;20277;-74
2022/11/29 08:13:58;;;;;;;4.22;3.50;;;;;;;;;;5060372;28;20029;-75
2022/11/29 08:16:25;;;;;;;3.88;3.42;;;;;;;;;;5053953;28;20107;-76
2022/11/29 08:18:51;;;;;;;4.43;3.63;;;;;;;;;;5063249;28;20035;-75
2022/11/29 08:21:17;;;;;;;4.68;3.78;;;;;;;;;;5061517;28;20419;-74
2022/11/29 08:23:44;;;;;;;4.88;3.72;;;;;;;;;;5061283;28;20052;-75
2022/11/29 08:26:10;;;;;;;6.03;4.15;;;;;;;;;;5060148;28;20164;-74
2022/11/29 08:28:36;;;;;;;5.82;4.43;;;;;;;;;;5058985;28;20451;-74
2022/11/29 08:31:04;;;;;;;6.50;3.55;;;;;;;;;;5060111;28;20031;-74
2022/11/29 08:33:30;;;;;;;5.90;3.95;;;;;;;;;;5057024;28;20091;-74
2022/11/29 08:36:03;;;;;;;5.40;3.38;;;;;;;;;;5063897;28;20016;-74
2022/11/29 08:38:29;;;;;;;5.07;4.30;;;;;;;;;;5058244;28;20029;-75
2022/11/29 08:40:59;;;;;;;5.82;4.10;;;;;;;;;;5058871;28;20532;-76
2022/11/29 08:43:26;;;;;;;5.10;3.42;;;;;;;;;;5062315;28;20024;-76
2022/11/29 08:45:52;;;;;;;6.97;3.70;;;;;;;;;;5056544;28;20044;-75
2022/11/29 08:48:18;;;;;;;8.02;3.25;;;;;;;;;;5062974;28;20052;-76
2022/11/29 08:50:44;;;;;;;5.50;3.65;;;;;;;;;;5058851;28;20028;-75
2022/11/29 08:55:58;;;;;;;5.95;3.90;;;;;;;;;;5058908;28;20035;-75
2022/11/29 08:58:25;;;;;;;8.38;4.05;;;;;;;;;;5059640;28;20044;-76
2022/11/29 09:00:51;;;;;;;5.70;3.95;;;;;;;;;;5055219;28;20107;-75
2022/11/29 09:06:06;;;;;;;6.90;3.65;;;;;;;;;;5055268;28;20055;-74
2022/11/29 09:08:32;;;;;;;5.85;3.97;;;;;;;;;;5059699;28;20119;-75
2022/11/29 09:10:58;;;;;;;5.60;4.13;;;;;;;;;;5061059;28;20032;-74
2022/11/29 09:13:24;;;;;;;4.75;4.00;;;;;;;;;;5055330;28;20550;-74
2022/11/29 09:15:50;;;;;;;5.90;3.72;;;;;;;;;;5058803;28;20027;-74
2022/11/29 09:18:17;;;;;;;5.45;3.95;;;;;;;;;;5056990;28;20123;-75
2022/11/29 09:20:43;;;;;;;5.43;3.63;;;;;;;;;;5060079;28;20028;-74
2022/11/29 09:23:11;;;;;;;4.57;3.13;;;;;;;;;;5060726;28;20024;-73
2022/11/29 09:25:37;;;;;;;5.50;3.40;;;;;;;;;;5059410;28;20111;-74
2022/11/29 09:28:03;;;;;;;7.82;3.40;;;;;;;;;;5057380;28;20063;-74
2022/11/29 09:30:30;;;;;;;6.47;3.28;;;;;;;;;;5056532;28;20056;-74
2022/11/29 09:33:01;;;;;;;5.15;3.45;;;;;;;;;;5055716;28;20029;-74
2022/11/29 09:35:28;;;;;;;4.73;3.50;;;;;;;;;;5056188;28;20024;-74
2022/11/29 09:37:54;;;;;;;3.63;3.08;;;;;;;;;;5064506;28;20024;-74
2022/11/29 09:40:22;;;;;;;3.70;3.22;;;;;;;;;;5062974;28;20028;-75
2022/11/29 09:42:48;;;;;;;6.50;3.17;;;;;;;;;;5060570;28;20021;-75
2022/11/29 09:45:18;;;;;;;4.32;3.38;;;;;;;;;;5058960;28;20040;-74
2022/11/29 09:47:53;;;;;;;4.88;3.50;;;;;;;;;;5056788;28;20044;-74
2022/11/29 09:50:32;;;;;;;4.05;3.10;;;;;;;;;;5062351;28;20024;-74
2022/11/29 09:53:17;;;;;;;6.15;3.10;;;;;;;;;;5061956;28;20055;-75
2022/11/29 09:55:56;;;;;;;7.82;3.85;;;;;;;;;;5060746;28;20507;-74
2022/11/29 09:58:26;;;;;;;5.53;3.60;;;;;;;;;;5060168;28;20115;-75
2022/11/29 10:00:57;;;;;;;4.88;3.25;;;;;;;;;;5058340;28;20441;-74
2022/11/29 10:03:26;;;;;;;4.28;3.35;;;;;;;;;;5063852;28;20034;-74
2022/11/29 10:06:02;;;;;;;4.20;3.50;;;;;;;;;;5061838;28;20123;-77
2022/11/29 10:08:40;;;;;;;4.95;3.83;;;;;;;;;;5058864;28;20888;-75
2022/11/29 10:11:13;;;;;;;7.20;3.90;;;;;;;;;;5073093;28;20035;-74
2022/11/29 10:13:43;;;;;;;3.67;3.15;;;;;;;;;;5062312;28;20028;-76
2022/11/29 10:16:18;;;;;;;4.28;3.65;;;;;;;;;;5056252;28;20031;-75
2022/11/29 10:19:10;;;;;;;5.07;3.50;;;;;;;;;;5062112;28;20078;-75
2022/11/29 10:21:38;;;;;;;5.05;3.67;;;;;;;;;;5051046;28;20122;-75
2022/11/29 10:24:10;;;;;;;8.30;4.72;;;;;;;;;;5060059;28;20028;-75
2022/11/29 10:26:37;;;;;;;11.32;6.72;;;;;;;;;;5055836;28;20025;-75
2022/11/29 10:29:03;;;;;;;12.63;6.40;;;;;;;;;;5056089;28;20086;-75
2022/11/29 10:31:35;;;;;;;9.65;5.90;;;;;;;;;;5059345;28;20086;-75
2022/11/29 10:34:02;;;;;;;10.75;5.95;;;;;;;;;;5060640;28;20039;-76
2022/11/29 10:36:36;;;;;;;10.73;5.93;;;;;;;;;;5060682;28;20020;-74
2022/11/29 10:39:09;;;;;;;11.85;5.65;;;;;;;;;;5060681;28;20028;-75
2022/11/29 10:41:36;;;;;;;8.57;5.15;;;;;;;;;;5063237;28;20028;-76
2022/11/29 10:44:02;;;;;;;8.25;5.40;;;;;;;;;;5062462;28;20462;-77
2022/11/29 10:46:30;;;;;;;7.45;5.93;;;;;;;;;;5058250;28;20625;-77
2022/11/29 10:49:01;;;;;;;8.20;5.95;;;;;;;;;;5054611;28;20143;-77
2022/11/29 10:51:29;;;;;;;6.30;5.35;;;;;;;;;;5060888;28;20129;-77
2022/11/29 10:53:55;;;;;;;10.25;5.78;;;;;;;;;;5060683;28;20024;-75
2022/11/29 10:56:25;;;;;;;6.45;4.88;;;;;;;;;;5057080;28;20632;-77
2022/11/29 10:58:56;;;;;;;7.93;5.18;;;;;;;;;;5052782;28;20043;-76
2022/11/29 11:01:23;;;;;;;8.98;5.70;;;;;;;;;;5051992;28;20032;-76
2022/11/29 11:03:51;;;;;;;8.02;6.28;;;;;;;;;;5054967;28;20060;-76
2022/11/29 11:06:21;;;;;;;8.80;5.80;;;;;;;;;;5050885;28;20024;-75
2022/11/29 11:08:54;;;;;;;8.45;5.82;;;;;;;;;;5055312;28;20059;-75
2022/11/29 11:11:28;;;;;;;6.82;5.45;;;;;;;;;;5054949;28;20033;-76
2022/11/29 11:14:21;;;;;;;8.75;5.32;;;;;;;;;;5051346;28;20029;-75
2022/11/29 11:16:47;;;;;;;;;;;;;;;;;;5050020;28;20036;-75
2022/11/29 11:19:32;;;;;;;9.13;6.30;;;;;;;;;;5050500;28;19992;-75
2022/11/29 11:22:00;;;;;;;7.82;5.03;;;;;;;;;;5055995;28;20028;-75
2022/11/29 11:24:28;;;;;;;7.40;5.13;;;;;;;;;;5062248;28;20476;-75
2022/11/29 11:26:54;;;;;;;5.82;4.97;;;;;;;;;;5057979;28;20025;-76
2022/11/29 11:29:24;;;;;;;5.80;4.82;;;;;;;;;;5055476;28;20057;-75
2022/11/29 11:31:57;;;;;;;8.38;5.20;;;;;;;;;;5058498;28;20016;-74
2022/11/29 11:34:25;;;;;;;9.18;5.72;;;;;;;;;;5060505;28;20560;-74
2022/11/29 11:36:52;;;;;;;9.15;6.53;;;;;;;;;;5055819;28;20025;-76
2022/11/29 11:39:22;;;;;;;10.73;7.05;;;;;;;;;;5061373;28;20032;-76
2022/11/29 11:44:40;;;;;;;9.77;6.32;;;;;;;;;;5057583;28;20541;-75
2022/11/29 11:47:06;;;;;;;;;;;;;;;;;;5059336;28;20044;-75
2022/11/29 11:49:51;;;;;;;7.60;5.50;;;;;;;;;;5062244;28;19952;-74
2022/11/29 11:52:20;;;;;;;6.70;5.03;;;;;;;;;;5066317;28;20028;-75
2022/11/29 11:54:50;;;;;;;6.55;4.95;;;;;;;;;;5057057;28;20644;-75
2022/11/29 11:57:20;;;;;;;6.13;5.05;;;;;;;;;;5055986;28;20025;-75
2022/11/29 11:59:50;;;;;;;7.90;5.32;;;;;;;;;;5063185;28;20064;-77
2022/11/29 12:02:25;;;;;;;5.47;4.60;;;;;;;;;;5070192;28;20021;-75
2022/11/29 12:04:53;;;;;;;5.97;4.68;;;;;;;;;;5065152;28;20021;-75
2022/11/29 12:07:38;;;;;;;6.53;4.45;;;;;;;;;;5065967;28;20074;-77
2022/11/29 12:10:06;;;;;;;5.78;4.55;;;;;;;;;;5052520;28;20356;-74
2022/11/29 12:12:37;;;;;;;6.63;4.10;;;;;;;;;;5059660;28;20017;-74
2022/11/29 12:15:03;;;;;;;;;;;;;;;;;;5064930;28;20850;-74
2022/11/29 12:17:32;;;;;;;4.55;3.78;;;;;;;;;;5062832;28;20025;-75
2022/11/29 12:20:03;;;;;;;5.72;3.55;;;;;;;;;;5056330;28;20040;-75
2022/11/29 12:22:32;;;;;;;3.95;3.33;;;;;;;;;;5056368;28;20385;-75
2022/11/29 12:25:02;;;;;;;7.80;3.53;;;;;;;;;;5064159;28;20029;-74
2022/11/29 12:27:28;;;;;;;3.38;3.08;;;;;;;;;;5063391;28;20029;-75
2022/11/29 12:29:56;;;;;;;6.22;3.47;;;;;;;;;;5059990;28;20563;-75
2022/11/29 12:32:23;;;;;;;5.65;3.70;;;;;;;;;;5057487;28;20025;-76
2022/11/29 12:34:55;;;;;;;7.45;4.00;;;;;;;;;;5062983;28;20020;-74
2022/11/29 12:37:42;;;;;;;4.90;3.70;;;;;;;;;;5061082;28;20120;-74
2022/11/29 12:40:27;;;;;;;5.43;3.80;;;;;;;;;;5057266;28;20159;-75
2022/11/29 12:42:54;;;;;;;8.38;3.47;;;;;;;;;;5056938;28;20024;-77
2022/11/29 12:45:25;;;;;;;7.60;4.05;;;;;;;;;;5063825;28;20035;-76
2022/11/29 12:48:09;;;;;;;5.40;3.67;;;;;;;;;;5060194;28;20121;-76
2022/11/29 12:50:35;;;;;;;3.92;3.45;;;;;;;;;;5063148;28;20465;-75
2022/11/29 12:53:01;;;;;;;5.13;3.65;;;;;;;;;;5060055;28;20524;-76
2022/11/29 12:55:51;;;;;;;5.57;3.72;;;;;;;;;;5056447;28;20024;-76
2022/11/29 12:58:20;;;;;;;3.85;3.33;;;;;;;;;;5053528;28;20422;-74
2022/11/29 13:00:51;;;;;;;4.68;3.47;;;;;;;;;;5057955;28;20038;-75
2022/11/29 13:03:21;;;;;;;4.53;3.33;;;;;;;;;;5060917;28;20024;-74
2022/11/29 13:05:55;;;;;;;4.20;3.60;;;;;;;;;;5063074;28;20491;-77
2022/11/29 13:08:38;;;;;;;4.95;3.55;;;;;;;;;;5059036;28;20491;-76
2022/11/29 13:11:19;;;;;;;6.03;3.42;;;;;;;;;;5060550;28;20074;-72
2022/11/29 13:13:51;;;;;;;5.47;3.60;;;;;;;;;;5064490;28;20028;-74
2022/11/29 13:16:20;;;;;;;12.70;3.85;;;;;;;;;;5060574;28;20028;-74
2022/11/29 13:18:54;;;;;;;6.10;3.90;;;;;;;;;;5056093;28;20043;-75
2022/11/29 13:21:31;;;;;;;4.43;3.40;;;;;;;;;;5055376;28;20024;-74
2022/11/29 13:24:10;;;;;;;4.55;3.40;;;;;;;;;;5058073;28;20036;-74
2022/11/29 13:26:40;;;;;;;5.20;3.70;;;;;;;;;;5061717;28;20103;-74
2022/11/29 13:29:12;;;;;;;5.72;3.65;;;;;;;;;;5061370;28;20027;-73
2022/11/29 13:31:38;;;;;;;4.32;3.10;;;;;;;;;;5062981;28;20039;-73
2022/11/29 13:34:13;;;;;;;3.90;3.38;;;;;;;;;;5060387;28;20032;-73
2022/11/29 13:36:39;;;;;;;3.80;3.33;;;;;;;;;;5064756;28;20153;-73
2022/11/29 13:39:15;;;;;;;4.35;3.55;;;;;;;;;;5061818;28;20381;-74
2022/11/29 13:41:54;;;;;;;5.30;3.40;;;;;;;;;;5060092;28;20024;-73
2022/11/29 13:44:24;;;;;;;3.55;2.88;;;;;;;;;;5060128;28;20021;-74
2022/11/29 13:47:05;;;;;;;4.10;3.10;;;;;;;;;;5058361;28;20066;-73
2022/11/29 13:49:51;;;;;;;3.70;3.25;;;;;;;;;;5069372;28;20609;-73
2022/11/29 13:52:36;;;;;;;4.60;3.38;;;;;;;;;;5060522;28;20565;-74
2022/11/29 13:55:09;;;;;;;4.60;3.33;;;;;;;;;;5059666;28;20512;-74
2022/11/29 13:57:54;;;;;;;5.47;3.55;;;;;;;;;;5056322;28;20028;-74
2022/11/29 14:00:32;;;;;;;5.10;4.20;;;;;;;;;;5057800;28;20028;-73
2022/11/29 14:03:18;;;;;;;5.35;4.55;;;;;;;;;;5058874;28;20585;-73
2022/11/29 14:05:49;;;;;;;7.53;4.75;;;;;;;;;;5061675;28;20025;-74
2022/11/29 14:08:32;;;;;;;7.13;5.07;;;;;;;;;;5061105;28;20500;-73
2022/11/29 14:11:13;;;;;;;6.47;4.57;;;;;;;;;;5061174;28;20032;-73
2022/11/29 14:13:42;;;;;;;6.38;5.20;;;;;;;;;;5065067;28;20025;-73
2022/11/29 14:16:17;;;;;;;6.43;4.97;;;;;;;;;;5058985;28;20025;-72
2022/11/29 14:18:49;;;;;;;10.13;5.63;;;;;;;;;;5056865;28;20032;-72
2022/11/29 14:21:15;;;;;;;10.07;6.25;;;;;;;;;;5058696;28;20029;-73
2022/11/29 14:23:42;;;;;;;9.02;5.40;;;;;;;;;;5057526;28;20060;-73
2022/11/29 14:26:09;;;;;;;8.75;5.00;;;;;;;;;;5057546;28;20021;-76
2022/11/29 14:28:39;;;;;;;5.80;3.70;;;;;;;;;;5053738;28;20040;-76
2022/11/29 14:31:06;;;;;;;4.78;3.65;;;;;;;;;;5058477;28;20036;-75
2022/11/29 14:33:36;;;;;;;4.80;3.47;;;;;;;;;;5061446;28;20028;-75
2022/11/29 14:36:05;;;;;;;4.93;3.33;;;;;;;;;;5056539;28;20037;-75
2022/11/29 14:38:50;;;;;;;7.60;3.83;;;;;;;;;;5056070;28;20071;-75
2022/11/29 14:41:20;;;;;;;5.43;3.40;;;;;;;;;;5060031;28;20506;-75
2022/11/29 14:43:47;;;;;;;4.25;3.38;;;;;;;;;;5052166;28;20843;-75
2022/11/29 14:46:16;;;;;;;4.40;3.03;;;;;;;;;;5060166;28;20496;-75
2022/11/29 14:48:57;;;;;;;4.57;3.40;;;;;;;;;;5054923;28;20069;-74
2022/11/29 14:51:24;;;;;;;4.45;3.30;;;;;;;;;;5058303;28;20032;-75
2022/11/29 14:54:01;;;;;;;5.20;3.75;;;;;;;;;;5058832;28;20040;-75
2022/11/29 14:56:41;;;;;;;8.68;3.47;;;;;;;;;;5054835;28;20028;-76
2022/11/29 14:59:26;;;;;;;4.88;2.83;;;;;;;;;;5053303;28;20036;-75
2022/11/29 15:01:52;;;;;;;3.22;2.72;;;;;;;;;;5055259;28;20025;-75
2022/11/29 15:04:20;;;;;;;4.28;2.70;;;;;;;;;;5060006;28;20016;-74
2022/11/29 15:06:49;;;;;;;4.80;2.78;;;;;;;;;;5056003;28;20020;-75
2022/11/29 15:09:17;;;;;;;3.78;2.92;;;;;;;;;;5056403;28;20021;-75
2022/11/29 15:11:46;;;;;;;3.20;2.50;;;;;;;;;;5059353;28;20102;-75
2022/11/29 15:14:19;;;;;;;4.38;2.80;;;;;;;;;;5057104;28;20036;-76
2022/11/29 15:16:51;;;;;;;4.68;2.15;;;;;;;;;;5063946;28;20074;-75
2022/11/29 15:19:35;;;;;;;2.40;2.10;;;;;;;;;;5060935;28;20750;-75
2022/11/29 15:22:15;;;;;;;3.55;2.40;;;;;;;;;;5061269;28;20032;-75